TimeMST,TemperatureF,Dew PointF,Humidity,Sea Level PressureIn,VisibilityMPH,Wind Direction,Wind SpeedMPH,Gust SpeedMPH,PrecipitationIn,Events,Conditions,WindDirDegrees,DateUTC
12:15 AM,39.2,19.4,45,29.80,10.0,WSW,21.9,39.1,N/A,,Partly Cloudy,240,2013-03-07 07:15:00
12:35 AM,39.2,17.6,42,29.82,10.0,SW,15.0,29.9,N/A,,Clear,230,2013-03-07 07:35:00
12:55 AM,39.2,19.4,45,29.81,10.0,WSW,15.0,19.6,N/A,,Clear,250,2013-03-07 07:55:00
1:15 AM,39.2,17.6,42,29.80,10.0,SW,12.7,19.6,N/A,,Clear,230,2013-03-07 08:15:00
1:35 AM,35.6,17.6,48,29.80,10.0,SSW,11.5,-,N/A,,Clear,200,2013-03-07 08:35:00
1:55 AM,35.6,15.8,44,29.80,10.0,South,11.5,-,N/A,,Clear,190,2013-03-07 08:55:00
2:15 AM,35.6,15.8,44,29.80,10.0,SSW,8.1,-,N/A,,Clear,210,2013-03-07 09:15:00
2:55 AM,37.4,12.2,36,29.82,10.0,WSW,9.2,21.9,N/A,,Clear,250,2013-03-07 09:55:00
3:15 AM,37.4,10.4,33,29.83,10.0,West,18.4,24.2,N/A,,Clear,260,2013-03-07 10:15:00
3:35 AM,37.4,12.2,36,29.84,10.0,WSW,11.5,18.4,N/A,,Clear,250,2013-03-07 10:35:00
3:55 AM,37.4,10.4,33,29.85,10.0,West,6.9,20.7,N/A,,Clear,270,2013-03-07 10:55:00
4:15 AM,37.4,10.4,33,29.86,10.0,West,6.9,-,N/A,,Clear,260,2013-03-07 11:15:00
4:35 AM,35.6,10.4,35,29.87,10.0,Calm,Calm,-,N/A,,Clear,0,2013-03-07 11:35:00
4:55 AM,35.6,10.4,35,29.88,10.0,NNE,6.9,-,N/A,,Clear,20,2013-03-07 11:55:00
5:15 AM,35.6,10.4,35,29.89,10.0,North,8.1,18.4,N/A,,Clear,10,2013-03-07 12:15:00
5:35 AM,37.4,10.4,33,29.89,10.0,ENE,9.2,20.7,N/A,,Clear,70,2013-03-07 12:35:00
5:55 AM,37.4,10.4,33,29.91,10.0,SSW,3.5,20.7,N/A,,Clear,200,2013-03-07 12:55:00
6:15 AM,35.6,10.4,35,29.90,10.0,West,9.2,16.1,N/A,,Clear,260,2013-03-07 13:15:00
6:35 AM,35.6,8.6,33,29.90,10.0,WSW,11.5,-,N/A,,Clear,240,2013-03-07 13:35:00
6:55 AM,35.6,10.4,35,29.91,10.0,WSW,11.5,18.4,N/A,,Clear,240,2013-03-07 13:55:00
7:15 AM,35.6,8.6,33,29.91,10.0,WSW,10.4,16.1,N/A,,Clear,240,2013-03-07 14:15:00
7:55 AM,37.4,10.4,33,29.92,10.0,WSW,12.7,18.4,N/A,,Clear,240,2013-03-07 14:55:00
8:15 AM,39.2,10.4,31,29.92,10.0,WSW,15.0,18.4,N/A,,Clear,240,2013-03-07 15:15:00
8:35 AM,39.2,8.6,28,29.92,10.0,WSW,16.1,23.0,N/A,,Clear,250,2013-03-07 15:35:00
8:55 AM,39.2,10.4,31,29.91,10.0,West,17.3,24.2,N/A,,Clear,260,2013-03-07 15:55:00
9:15 AM,39.2,8.6,28,29.91,10.0,West,17.3,27.6,N/A,,Clear,260,2013-03-07 16:15:00
9:35 AM,41.0,8.6,26,29.91,10.0,West,17.3,25.3,N/A,,Clear,260,2013-03-07 16:35:00
9:55 AM,42.8,8.6,25,29.92,10.0,West,12.7,25.3,N/A,,Clear,260,2013-03-07 16:55:00
10:35 AM,42.8,8.6,25,29.92,10.0,WSW,16.1,25.3,N/A,,Clear,240,2013-03-07 17:35:00
10:55 AM,42.8,8.6,25,29.93,10.0,WSW,18.4,24.2,N/A,,Clear,240,2013-03-07 17:55:00
11:15 AM,44.6,8.6,23,29.92,10.0,SW,15.0,21.9,N/A,,Clear,230,2013-03-07 18:15:00
11:35 AM,46.4,6.8,20,29.93,10.0,WSW,8.1,-,N/A,,Clear,240,2013-03-07 18:35:00
11:55 AM,46.4,5.0,18,29.92,10.0,WSW,10.4,19.6,N/A,,Clear,250,2013-03-07 18:55:00
12:35 PM,46.4,5.0,18,29.92,10.0,SW,10.4,-,N/A,,Clear,220,2013-03-07 19:35:00
12:55 PM,46.4,3.2,17,29.91,10.0,WSW,8.1,-,N/A,,Clear,240,2013-03-07 19:55:00
1:15 PM,46.4,5.0,18,29.91,10.0,WSW,4.6,-,N/A,,Clear,240,2013-03-07 20:15:00
1:35 PM,46.4,3.2,17,29.90,10.0,SSW,4.6,-,N/A,,Scattered Clouds,200,2013-03-07 20:35:00
1:55 PM,46.4,5.0,18,29.90,10.0,WSW,5.8,-,N/A,,Mostly Cloudy,240,2013-03-07 20:55:00
2:15 PM,46.4,5.0,18,29.89,10.0,SW,4.6,-,N/A,,Mostly Cloudy,220,2013-03-07 21:15:00
2:35 PM,46.4,5.0,18,29.89,10.0,Calm,Calm,-,N/A,,Overcast,0,2013-03-07 21:35:00
2:55 PM,48.2,6.8,19,29.89,10.0,Calm,Calm,-,N/A,,Overcast,0,2013-03-07 21:55:00
3:15 PM,48.2,12.2,24,29.89,10.0,East,8.1,-,N/A,,Mostly Cloudy,90,2013-03-07 22:15:00
3:35 PM,48.2,12.2,24,29.89,10.0,East,5.8,-,N/A,,Partly Cloudy,100,2013-03-07 22:35:00
3:55 PM,48.2,10.4,22,29.89,10.0,East,6.9,-,N/A,,Clear,90,2013-03-07 22:55:00
4:15 PM,46.4,12.2,25,29.90,10.0,SSE,11.5,-,N/A,,Partly Cloudy,160,2013-03-07 23:15:00
4:35 PM,46.4,15.8,29,29.90,10.0,SSE,10.4,-,N/A,,Mostly Cloudy,160,2013-03-07 23:35:00
4:55 PM,44.6,15.8,31,29.91,10.0,SSE,12.7,-,N/A,,Mostly Cloudy,150,2013-03-07 23:55:00
5:55 PM,42.8,14.0,31,29.93,10.0,SE,9.2,-,N/A,,Mostly Cloudy,130,2013-03-08 00:55:00
6:15 PM,41.0,12.2,31,29.94,10.0,SE,6.9,-,N/A,,Partly Cloudy,130,2013-03-08 01:15:00
6:35 PM,39.2,12.2,33,29.95,10.0,SE,5.8,-,N/A,,Mostly Cloudy,140,2013-03-08 01:35:00
6:55 PM,39.2,12.2,33,29.95,10.0,SE,6.9,-,N/A,,Overcast,140,2013-03-08 01:55:00
7:15 PM,39.2,14.0,36,29.96,10.0,SSE,4.6,-,N/A,,Overcast,160,2013-03-08 02:15:00
7:35 PM,39.2,15.8,39,29.96,10.0,Calm,Calm,-,N/A,,Overcast,0,2013-03-08 02:35:00
8:15 PM,39.2,15.8,39,29.96,10.0,Calm,Calm,-,N/A,,Overcast,0,2013-03-08 03:15:00
8:55 PM,39.2,14.0,36,29.94,10.0,WNW,8.1,-,N/A,,Overcast,300,2013-03-08 03:55:00
9:15 PM,39.2,12.2,33,29.95,10.0,NW,8.1,-,N/A,,Mostly Cloudy,320,2013-03-08 04:15:00
9:35 PM,37.4,12.2,36,29.95,10.0,NNE,4.6,-,N/A,,Scattered Clouds,20,2013-03-08 04:35:00
9:55 PM,37.4,12.2,36,29.95,10.0,Calm,Calm,-,N/A,,Scattered Clouds,0,2013-03-08 04:55:00
10:35 PM,35.6,12.2,38,29.95,10.0,Calm,Calm,-,N/A,,Partly Cloudy,0,2013-03-08 05:35:00
10:55 PM,33.8,14.0,44,29.95,10.0,Calm,Calm,-,N/A,,Clear,0,2013-03-08 05:55:00
11:15 PM,32.0,12.2,44,29.95,10.0,South,4.6,-,N/A,,Clear,190,2013-03-08 06:15:00
11:55 PM,30.2,10.4,44,29.94,10.0,SSW,3.5,-,N/A,,Partly Cloudy,200,2013-03-08 06:55:00